Time;durP1;ratioP1;P1;durP2;ratioP2;P2;SDS_P1;SDS_P2;PMS_P1;PMS_P2;Temp;Humidity;BMP_temperature;BMP_pressure;BME280_temperature;BME280_humidity;BME280_pressure;Samples;Min_cycle;Max_cycle;Signal;HPM_P1;HPM_P2
2024/01/31 00:02:34;;;;;;;19.20;10.02;;;;;;;;;;6142898;23;20020;-80
2024/01/31 00:05:22;;;;;;;23.23;11.63;;;;;;;;;;6120924;23;20036;-79
2024/01/31 00:08:08;;;;;;;21.55;12.10;;;;;;;;;;6142156;23;20028;-79
2024/01/31 00:10:54;;;;;;;22.13;13.52;;;;;;;;;;6141927;23;20032;-79
2024/01/31 00:13:43;;;;;;;24.30;13.82;;;;;;;;;;6122006;23;20024;-80
2024/01/31 00:16:29;;;;;;;26.90;13.70;;;;;;;;;;6134995;23;20024;-79
2024/01/31 00:19:17;;;;;;;26.90;14.48;;;;;;;;;;6141828;23;20028;-79
2024/01/31 00:22:05;;;;;;;25.23;14.38;;;;;;;;;;6141915;23;20024;-80
2024/01/31 00:24:53;;;;;;;22.50;12.32;;;;;;;;;;6142833;23;20365;-79
2024/01/31 00:27:39;;;;;;;23.08;13.45;;;;;;;;;;6142329;23;20028;-79
2024/01/31 00:30:27;;;;;;;25.58;12.82;;;;;;;;;;6142458;23;20028;-79
2024/01/31 00:33:13;;;;;;;28.63;14.35;;;;;;;;;;6141735;23;20029;-79
2024/01/31 00:36:01;;;;;;;25.63;14.20;;;;;;;;;;6121239;23;20356;-79
2024/01/31 00:38:50;;;;;;;27.65;13.23;;;;;;;;;;6143543;23;20342;-79
2024/01/31 00:41:38;;;;;;;26.10;13.85;;;;;;;;;;6144655;23;20070;-79
2024/01/31 00:44:27;;;;;;;26.33;15.70;;;;;;;;;;6144152;23;20029;-80
2024/01/31 00:47:13;;;;;;;22.88;13.90;;;;;;;;;;6135315;23;20032;-80
2024/01/31 00:49:59;;;;;;;23.60;12.93;;;;;;;;;;6144723;23;20024;-79
2024/01/31 00:52:45;;;;;;;22.35;13.55;;;;;;;;;;6143347;23;20020;-80
2024/01/31 00:55:34;;;;;;;22.95;14.00;;;;;;;;;;6142822;23;20028;-79
2024/01/31 00:58:23;;;;;;;25.00;13.57;;;;;;;;;;6144056;23;20028;-80
2024/01/31 01:01:11;;;;;;;25.80;14.02;;;;;;;;;;6144483;23;20028;-80
2024/01/31 01:03:59;;;;;;;21.88;11.98;;;;;;;;;;6144757;23;20024;-79
2024/01/31 01:06:45;;;;;;;27.25;14.48;;;;;;;;;;6123837;23;20028;-80
2024/01/31 01:09:31;;;;;;;34.13;17.40;;;;;;;;;;6144095;23;20493;-79
2024/01/31 01:12:18;;;;;;;25.63;14.80;;;;;;;;;;6123127;23;20020;-80
2024/01/31 01:15:05;;;;;;;21.95;13.10;;;;;;;;;;6143921;23;20354;-80
2024/01/31 01:17:51;;;;;;;23.65;13.63;;;;;;;;;;6123809;23;20028;-79
2024/01/31 01:20:40;;;;;;;28.60;14.38;;;;;;;;;;6144252;23;20024;-80
2024/01/31 01:23:26;;;;;;;26.73;15.48;;;;;;;;;;6143765;23;20024;-80
2024/01/31 01:26:13;;;;;;;25.05;14.65;;;;;;;;;;6140665;23;20354;-80
2024/01/31 01:29:00;;;;;;;23.33;13.35;;;;;;;;;;6144116;23;20028;-79
2024/01/31 01:31:46;;;;;;;28.77;15.77;;;;;;;;;;6144852;23;20028;-80
2024/01/31 01:34:32;;;;;;;23.10;13.98;;;;;;;;;;6123405;23;20024;-79
2024/01/31 01:37:18;;;;;;;25.42;14.40;;;;;;;;;;6142851;23;20028;-80
2024/01/31 01:40:07;;;;;;;21.83;13.27;;;;;;;;;;6145558;23;20024;-79
2024/01/31 01:42:53;;;;;;;28.58;14.63;;;;;;;;;;6144551;23;20037;-79
2024/01/31 01:45:40;;;;;;;24.17;13.93;;;;;;;;;;6142912;23;20024;-80
2024/01/31 01:48:26;;;;;;;26.40;14.13;;;;;;;;;;6123026;23;20024;-79
2024/01/31 01:51:14;;;;;;;26.15;13.85;;;;;;;;;;6143406;23;20032;-79
2024/01/31 01:54:03;;;;;;;24.60;13.98;;;;;;;;;;6143857;23;20014;-80
2024/01/31 01:56:50;;;;;;;24.58;13.27;;;;;;;;;;6122135;23;20070;-79
2024/01/31 01:59:39;;;;;;;22.63;13.07;;;;;;;;;;6143699;23;20350;-79
2024/01/31 02:02:26;;;;;;;28.17;14.02;;;;;;;;;;6142751;23;20028;-79
2024/01/31 02:05:14;;;;;;;22.83;14.00;;;;;;;;;;6122606;23;20024;-80
2024/01/31 02:08:01;;;;;;;27.75;13.27;;;;;;;;;;6143433;23;20024;-80
2024/01/31 02:10:47;;;;;;;22.10;13.18;;;;;;;;;;6144771;23;20028;-79
2024/01/31 02:13:33;;;;;;;20.85;12.73;;;;;;;;;;6140913;23;20024;-80
2024/01/31 02:16:19;;;;;;;21.45;13.45;;;;;;;;;;6143647;23;20028;-80
2024/01/31 02:19:11;;;;;;;24.55;13.77;;;;;;;;;;6144197;23;20028;-79
2024/01/31 02:22:03;;;;;;;21.63;12.32;;;;;;;;;;6144752;23;20024;-80
2024/01/31 02:24:50;;;;;;;19.75;12.82;;;;;;;;;;6122232;23;20020;-80
2024/01/31 02:27:36;;;;;;;22.73;12.07;;;;;;;;;;6136493;23;20028;-80
2024/01/31 02:30:24;;;;;;;27.98;13.60;;;;;;;;;;6143011;23;20468;-80
2024/01/31 02:33:11;;;;;;;21.58;13.35;;;;;;;;;;6143672;23;20020;-80
2024/01/31 02:35:57;;;;;;;23.63;12.45;;;;;;;;;;6142511;23;20028;-80
2024/01/31 02:38:42;;;;;;;27.38;12.80;;;;;;;;;;6144258;23;20374;-80
2024/01/31 02:41:30;;;;;;;22.27;12.77;;;;;;;;;;6144732;23;20026;-80
2024/01/31 02:44:16;;;;;;;22.35;12.98;;;;;;;;;;6121964;23;20021;-79
2024/01/31 02:47:03;;;;;;;24.00;12.98;;;;;;;;;;6137500;23;20025;-80
2024/01/31 02:49:49;;;;;;;25.92;13.27;;;;;;;;;;6143683;23;20025;-79
2024/01/31 02:52:34;;;;;;;22.80;12.80;;;;;;;;;;6144502;23;20028;-80
2024/01/31 02:55:20;;;;;;;24.17;13.10;;;;;;;;;;6143763;23;20021;-79
2024/01/31 02:58:07;;;;;;;23.92;13.88;;;;;;;;;;6143495;23;20024;-80
2024/01/31 03:00:53;;;;;;;22.95;12.45;;;;;;;;;;6142708;23;20032;-80
2024/01/31 03:03:39;;;;;;;21.17;12.90;;;;;;;;;;6122203;23;20024;-80
2024/01/31 03:06:25;;;;;;;22.85;12.65;;;;;;;;;;6143137;23;20032;-80
2024/01/31 03:09:11;;;;;;;19.98;10.88;;;;;;;;;;6124029;23;20028;-80
2024/01/31 03:11:59;;;;;;;21.00;11.63;;;;;;;;;;6144068;23;20028;-80
2024/01/31 03:14:48;;;;;;;17.85;11.43;;;;;;;;;;6150253;23;20522;-76
2024/01/31 03:17:39;;;;;;;21.48;11.88;;;;;;;;;;6154926;23;20354;-76
2024/01/31 03:20:25;;;;;;;18.98;11.25;;;;;;;;;;6162120;23;20025;-76
2024/01/31 03:23:13;;;;;;;19.33;10.88;;;;;;;;;;6141703;23;20028;-76
2024/01/31 03:26:04;;;;;;;18.40;11.38;;;;;;;;;;6159250;23;20041;-77
2024/01/31 03:28:54;;;;;;;21.05;12.05;;;;;;;;;;6140367;23;20029;-77
2024/01/31 03:31:41;;;;;;;18.77;11.35;;;;;;;;;;6163492;23;20028;-77
2024/01/31 03:34:26;;;;;;;23.02;11.80;;;;;;;;;;6161792;23;20032;-77
2024/01/31 03:37:12;;;;;;;18.67;11.52;;;;;;;;;;6155771;23;20032;-77
2024/01/31 03:39:58;;;;;;;21.08;11.85;;;;;;;;;;6161811;23;20025;-77
2024/01/31 03:42:48;;;;;;;22.08;12.20;;;;;;;;;;6141695;23;20033;-77
2024/01/31 03:45:36;;;;;;;19.63;11.85;;;;;;;;;;6161886;23;20024;-77
2024/01/31 03:48:26;;;;;;;18.38;10.95;;;;;;;;;;6141741;23;20024;-77
2024/01/31 03:51:18;;;;;;;19.58;12.02;;;;;;;;;;6162225;23;20032;-77
2024/01/31 03:54:04;;;;;;;18.30;10.77;;;;;;;;;;6161345;23;20025;-77
2024/01/31 03:56:50;;;;;;;23.25;11.82;;;;;;;;;;6157110;23;20025;-77
2024/01/31 03:59:36;;;;;;;18.08;9.93;;;;;;;;;;6139969;23;20032;-77
2024/01/31 04:02:26;;;;;;;18.58;10.90;;;;;;;;;;6163382;23;20032;-77
2024/01/31 04:05:14;;;;;;;20.05;10.38;;;;;;;;;;6140560;23;20024;-77
2024/01/31 04:08:02;;;;;;;23.83;12.45;;;;;;;;;;6161844;23;20034;-77
2024/01/31 04:10:52;;;;;;;20.08;11.07;;;;;;;;;;6161242;23;20028;-77
2024/01/31 04:13:37;;;;;;;17.80;11.15;;;;;;;;;;6140478;23;20025;-77
2024/01/31 04:16:28;;;;;;;18.40;11.18;;;;;;;;;;6160953;23;20025;-77
2024/01/31 04:19:16;;;;;;;18.48;10.07;;;;;;;;;;6163593;23;20032;-77
2024/01/31 04:22:04;;;;;;;19.60;9.85;;;;;;;;;;6162309;23;20028;-77
2024/01/31 04:24:51;;;;;;;18.35;9.70;;;;;;;;;;6165188;23;20017;-77
2024/01/31 04:27:37;;;;;;;16.75;9.07;;;;;;;;;;6154970;23;20021;-77
2024/01/31 04:30:23;;;;;;;23.17;10.60;;;;;;;;;;6141587;23;20025;-77
2024/01/31 04:33:09;;;;;;;22.63;10.88;;;;;;;;;;6165197;23;20024;-77
2024/01/31 04:35:57;;;;;;;21.48;11.52;;;;;;;;;;6142557;23;20342;-77
2024/01/31 04:38:47;;;;;;;19.33;11.35;;;;;;;;;;6142713;23;20032;-77
2024/01/31 04:41:33;;;;;;;17.90;10.48;;;;;;;;;;6141829;23;20024;-77
2024/01/31 04:44:21;;;;;;;21.63;10.18;;;;;;;;;;6165279;23;20041;-77
2024/01/31 04:47:07;;;;;;;23.65;12.65;;;;;;;;;;6157862;23;20027;-77
2024/01/31 04:49:57;;;;;;;22.58;12.40;;;;;;;;;;6164730;23;20028;-77
2024/01/31 04:52:45;;;;;;;23.08;12.23;;;;;;;;;;6141051;23;20036;-77
2024/01/31 04:55:35;;;;;;;18.80;10.60;;;;;;;;;;6163142;23;20024;-77
2024/01/31 04:58:23;;;;;;;21.52;11.10;;;;;;;;;;6142967;23;20036;-77
2024/01/31 05:01:09;;;;;;;19.83;10.75;;;;;;;;;;6141837;23;20024;-77
2024/01/31 05:03:58;;;;;;;19.48;9.18;;;;;;;;;;6162430;23;20024;-77
2024/01/31 05:06:46;;;;;;;19.48;9.75;;;;;;;;;;6178787;23;20222;-77
2024/01/31 05:09:35;;;;;;;20.52;11.75;;;;;;;;;;6163120;23;20021;-77
2024/01/31 05:12:25;;;;;;;20.55;12.13;;;;;;;;;;6162699;23;20028;-77
2024/01/31 05:15:14;;;;;;;23.70;12.85;;;;;;;;;;6140956;23;20024;-77
2024/01/31 05:18:02;;;;;;;23.38;11.90;;;;;;;;;;6141682;23;20028;-77
2024/01/31 05:20:51;;;;;;;19.40;10.45;;;;;;;;;;6142183;23;20029;-77
2024/01/31 05:23:40;;;;;;;23.58;11.48;;;;;;;;;;6163267;23;20503;-78
2024/01/31 05:26:28;;;;;;;22.70;10.85;;;;;;;;;;6158593;23;20025;-77
2024/01/31 05:29:18;;;;;;;16.30;10.13;;;;;;;;;;6164597;23;20032;-77
2024/01/31 05:32:05;;;;;;;16.90;10.60;;;;;;;;;;6162533;23;20028;-77
2024/01/31 05:34:55;;;;;;;21.17;10.68;;;;;;;;;;6143182;23;20024;-78
2024/01/31 05:37:41;;;;;;;16.17;10.50;;;;;;;;;;6154642;23;20028;-77
2024/01/31 05:40:30;;;;;;;19.52;9.95;;;;;;;;;;6162883;23;20045;-77
2024/01/31 05:43:19;;;;;;;17.83;9.73;;;;;;;;;;6163166;23;20017;-76
2024/01/31 05:46:05;;;;;;;19.80;10.63;;;;;;;;;;6140731;23;20014;-77
2024/01/31 05:48:57;;;;;;;19.98;10.95;;;;;;;;;;6164655;23;20029;-77
2024/01/31 05:51:46;;;;;;;14.23;9.02;;;;;;;;;;6141773;23;20488;-77
2024/01/31 05:54:36;;;;;;;18.52;10.18;;;;;;;;;;6163287;23;20021;-77
2024/01/31 05:57:22;;;;;;;21.08;11.02;;;;;;;;;;6153952;23;20028;-77
2024/01/31 06:00:13;;;;;;;20.63;11.60;;;;;;;;;;6163236;23;20481;-77
2024/01/31 06:03:04;;;;;;;19.23;11.25;;;;;;;;;;6142136;23;20477;-77
2024/01/31 06:05:52;;;;;;;20.65;11.43;;;;;;;;;;6161327;23;20033;-77
2024/01/31 06:08:43;;;;;;;19.55;10.90;;;;;;;;;;6162134;23;20028;-77
2024/01/31 06:11:34;;;;;;;19.55;11.20;;;;;;;;;;6162399;23;20032;-77
2024/01/31 06:14:22;;;;;;;23.60;12.10;;;;;;;;;;6155917;23;20492;-77
2024/01/31 06:17:10;;;;;;;19.42;10.27;;;;;;;;;;6162234;23;20025;-77
2024/01/31 06:20:00;;;;;;;21.60;11.18;;;;;;;;;;6162738;23;20358;-77
2024/01/31 06:22:46;;;;;;;18.88;10.35;;;;;;;;;;6162931;23;20065;-77
2024/01/31 06:25:32;;;;;;;17.40;10.10;;;;;;;;;;6161298;23;20426;-77
2024/01/31 06:28:20;;;;;;;25.98;10.35;;;;;;;;;;6163966;23;20044;-77
2024/01/31 06:31:14;;;;;;;19.15;10.60;;;;;;;;;;6162832;23;20033;-77
2024/01/31 06:34:00;;;;;;;47.22;12.95;;;;;;;;;;6162432;23;20029;-77
2024/01/31 06:36:50;;;;;;;17.00;9.93;;;;;;;;;;6158060;23;20041;-77
2024/01/31 06:39:38;;;;;;;22.52;12.25;;;;;;;;;;6141601;23;20021;-77
2024/01/31 06:42:26;;;;;;;18.52;11.00;;;;;;;;;;6141245;23;20032;-77
2024/01/31 06:45:12;;;;;;;23.35;12.63;;;;;;;;;;6140800;23;20020;-77
2024/01/31 06:47:58;;;;;;;26.00;13.13;;;;;;;;;;6140514;23;20477;-77
2024/01/31 06:50:44;;;;;;;23.42;11.30;;;;;;;;;;6139292;23;20028;-77
2024/01/31 06:53:34;;;;;;;17.23;10.10;;;;;;;;;;6162017;23;20496;-77
2024/01/31 06:56:20;;;;;;;20.27;9.90;;;;;;;;;;6159149;23;20027;-77
2024/01/31 06:59:08;;;;;;;23.80;11.23;;;;;;;;;;6163458;23;20490;-77
2024/01/31 07:01:59;;;;;;;25.80;15.50;;;;;;;;;;6162930;23;20465;-77
2024/01/31 07:04:45;;;;;;;27.40;14.25;;;;;;;;;;6161889;23;20032;-77
2024/01/31 07:07:31;;;;;;;21.25;12.00;;;;;;;;;;6139971;23;20028;-77
2024/01/31 07:10:21;;;;;;;19.08;9.48;;;;;;;;;;6162282;23;20021;-77
2024/01/31 07:13:09;;;;;;;20.52;9.13;;;;;;;;;;6164390;23;20025;-77
2024/01/31 07:16:00;;;;;;;21.40;9.32;;;;;;;;;;6185204;23;20017;-77
2024/01/31 07:18:46;;;;;;;18.02;11.07;;;;;;;;;;6170144;23;20334;-77
2024/01/31 07:21:32;;;;;;;20.65;11.80;;;;;;;;;;6150292;23;20488;-77
2024/01/31 07:24:18;;;;;;;20.70;11.73;;;;;;;;;;6170765;23;20032;-77
2024/01/31 07:27:08;;;;;;;25.35;12.88;;;;;;;;;;6149595;23;20342;-77
2024/01/31 07:29:54;;;;;;;24.67;13.20;;;;;;;;;;6149781;23;20476;-77
2024/01/31 07:32:40;;;;;;;25.63;11.45;;;;;;;;;;6170419;23;20036;-77
2024/01/31 07:35:26;;;;;;;22.35;10.95;;;;;;;;;;6171097;23;20027;-77
2024/01/31 07:38:12;;;;;;;21.85;11.73;;;;;;;;;;6170166;23;20028;-77
2024/01/31 07:41:01;;;;;;;21.05;11.50;;;;;;;;;;6149922;23;20349;-77
2024/01/31 07:43:50;;;;;;;23.65;12.18;;;;;;;;;;6169322;23;20027;-77
2024/01/31 07:46:36;;;;;;;27.52;11.82;;;;;;;;;;6164773;23;20067;-77
2024/01/31 07:49:24;;;;;;;27.40;12.68;;;;;;;;;;6149936;23;20028;-77
2024/01/31 07:52:13;;;;;;;24.42;11.55;;;;;;;;;;6192336;23;20024;-77
2024/01/31 07:55:01;;;;;;;27.08;12.05;;;;;;;;;;6149803;23;20031;-77
2024/01/31 07:57:47;;;;;;;27.90;12.35;;;;;;;;;;6149880;23;20047;-77
2024/01/31 08:00:35;;;;;;;25.63;12.00;;;;;;;;;;6171022;23;20028;-77
2024/01/31 08:03:21;;;;;;;24.77;13.25;;;;;;;;;;6192738;23;20079;-77
2024/01/31 08:06:06;;;;;;;25.95;12.27;;;;;;;;;;6166566;23;20024;-77
2024/01/31 08:08:52;;;;;;;26.70;13.15;;;;;;;;;;6170847;23;20028;-77
2024/01/31 08:11:44;;;;;;;32.45;13.10;;;;;;;;;;6170706;23;20545;-77
2024/01/31 08:14:29;;;;;;;25.48;11.55;;;;;;;;;;6149403;23;20031;-77
2024/01/31 08:17:17;;;;;;;24.45;12.95;;;;;;;;;;6149516;23;20024;-77
2024/01/31 08:20:07;;;;;;;25.33;12.63;;;;;;;;;;6149894;23;20024;-77
2024/01/31 08:22:53;;;;;;;27.80;14.55;;;;;;;;;;6192038;23;20024;-77
2024/01/31 08:25:42;;;;;;;37.63;15.88;;;;;;;;;;6163411;23;20028;-77
2024/01/31 08:28:30;;;;;;;30.45;14.05;;;;;;;;;;6170415;23;20032;-77
2024/01/31 08:31:18;;;;;;;28.35;14.93;;;;;;;;;;6197667;23;20024;-80
2024/01/31 08:39:44;;;;;;;31.05;14.50;;;;;;;;;;6203865;23;20012;-80
2024/01/31 08:42:30;;;;;;;30.02;14.07;;;;;;;;;;6141331;23;20029;-80
2024/01/31 08:45:15;;;;;;;25.10;13.77;;;;;;;;;;6121619;23;20074;-80
2024/01/31 08:48:07;;;;;;;33.03;14.85;;;;;;;;;;6141447;23;20488;-80
2024/01/31 08:50:53;;;;;;;30.83;15.18;;;;;;;;;;6142663;23;20028;-79
2024/01/31 08:53:39;;;;;;;39.28;15.38;;;;;;;;;;6122402;23;20021;-79
2024/01/31 09:13:41;;;;;;;44.45;19.90;;;;;;;;;;6200711;23;20013;-81
2024/01/31 09:16:27;;;;;;;38.80;17.58;;;;;;;;;;6179975;23;20051;-81
2024/01/31 09:19:16;;;;;;;51.35;18.50;;;;;;;;;;6201586;23;20032;-82
2024/01/31 09:22:02;;;;;;;38.50;17.27;;;;;;;;;;6178648;23;20031;-81
2024/01/31 09:24:48;;;;;;;36.58;15.50;;;;;;;;;;6178871;23;20028;-81
2024/01/31 09:27:34;;;;;;;31.00;15.38;;;;;;;;;;6169861;23;20069;-82
2024/01/31 09:30:21;;;;;;;38.95;15.82;;;;;;;;;;6179431;23;20023;-82
2024/01/31 09:33:07;;;;;;;30.27;14.95;;;;;;;;;;6158343;23;20032;-82
2024/01/31 09:35:53;;;;;;;37.75;14.85;;;;;;;;;;6157858;23;20024;-82
2024/01/31 09:38:39;;;;;;;31.75;15.10;;;;;;;;;;6179284;23;20024;-82
2024/01/31 09:41:33;;;;;;;30.77;14.30;;;;;;;;;;6179280;23;20027;-82
2024/01/31 09:44:19;;;;;;;26.10;12.88;;;;;;;;;;6179053;23;20023;-82
2024/01/31 09:47:09;;;;;;;23.38;11.88;;;;;;;;;;6173491;23;20353;-82
2024/01/31 09:49:56;;;;;;;28.10;12.75;;;;;;;;;;6178648;23;20023;-83
2024/01/31 09:52:43;;;;;;;29.65;13.18;;;;;;;;;;6201595;23;20028;-82
2024/01/31 09:55:30;;;;;;;24.23;11.35;;;;;;;;;;6201047;23;20023;-83
2024/01/31 09:58:16;;;;;;;23.80;11.65;;;;;;;;;;6201289;23;20023;-82
2024/01/31 10:01:04;;;;;;;20.58;11.60;;;;;;;;;;6201560;23;20353;-83
2024/01/31 10:04:24;;;;;;;22.60;11.35;;;;;;;;;;6176591;23;20023;-82
2024/01/31 10:07:10;;;;;;;22.17;10.25;;;;;;;;;;6150489;23;20028;-83
2024/01/31 10:09:57;;;;;;;19.55;9.65;;;;;;;;;;6174643;23;20406;-82
2024/01/31 10:12:43;;;;;;;19.95;9.48;;;;;;;;;;6174495;23;20021;-83
2024/01/31 10:15:29;;;;;;;17.42;9.57;;;;;;;;;;6174924;23;20472;-82
2024/01/31 10:18:16;;;;;;;18.63;10.00;;;;;;;;;;6174739;23;20013;-82
2024/01/31 10:21:04;;;;;;;16.27;9.50;;;;;;;;;;6198060;23;20027;-83
2024/01/31 10:23:59;;;;;;;20.73;10.65;;;;;;;;;;6176726;23;20017;-82
2024/01/31 10:26:45;;;;;;;21.98;10.43;;;;;;;;;;6194741;23;20028;-83
2024/01/31 10:29:31;;;;;;;20.27;11.10;;;;;;;;;;6194838;23;20032;-84
2024/01/31 10:32:17;;;;;;;24.92;11.63;;;;;;;;;;6172317;23;20032;-83
2024/01/31 10:35:04;;;;;;;20.33;11.18;;;;;;;;;;6171875;23;20024;-84
2024/01/31 10:37:52;;;;;;;22.25;11.52;;;;;;;;;;6184499;23;20029;-84
2024/01/31 10:40:41;;;;;;;20.17;12.20;;;;;;;;;;6172063;23;20024;-84
2024/01/31 10:43:26;;;;;;;21.98;12.30;;;;;;;;;;6171873;23;20069;-85
2024/01/31 10:46:12;;;;;;;21.38;11.13;;;;;;;;;;6171397;23;20028;-84
2024/01/31 10:48:58;;;;;;;21.65;10.52;;;;;;;;;;6194219;23;20349;-84
2024/01/31 10:51:47;;;;;;;16.75;9.85;;;;;;;;;;6152068;23;20044;-84
2024/01/31 10:54:38;;;;;;;18.38;9.93;;;;;;;;;;6171632;23;20353;-85
2024/01/31 10:57:24;;;;;;;15.90;9.23;;;;;;;;;;6164038;23;20020;-84
2024/01/31 11:00:21;;;;;;;16.38;8.85;;;;;;;;;;6151087;23;20361;-84
2024/01/31 11:03:07;;;;;;;15.05;8.57;;;;;;;;;;6151203;23;20024;-83
2024/01/31 11:05:54;;;;;;;19.80;9.70;;;;;;;;;;6171842;23;20032;-85
2024/01/31 11:08:41;;;;;;;20.10;9.40;;;;;;;;;;6172107;23;20484;-84
2024/01/31 11:11:28;;;;;;;17.73;9.13;;;;;;;;;;6194573;23;20028;-84
2024/01/31 11:14:14;;;;;;;14.50;8.05;;;;;;;;;;6175149;23;20023;-85
2024/01/31 11:17:08;;;;;;;12.70;6.35;;;;;;;;;;6186897;23;20025;-84
2024/01/31 11:19:57;;;;;;;10.27;6.10;;;;;;;;;;6193765;23;20024;-84
2024/01/31 11:22:44;;;;;;;13.68;6.63;;;;;;;;;;6171712;23;20028;-85
2024/01/31 11:25:36;;;;;;;15.10;7.05;;;;;;;;;;6183528;23;20021;-84
2024/01/31 11:28:26;;;;;;;12.05;6.70;;;;;;;;;;6193614;23;20043;-84
2024/01/31 11:31:12;;;;;;;12.77;6.25;;;;;;;;;;6171275;23;20028;-85
2024/01/31 11:34:00;;;;;;;13.00;7.30;;;;;;;;;;6194121;23;20028;-85
2024/01/31 11:36:46;;;;;;;14.85;6.85;;;;;;;;;;6166406;23;20610;-85
2024/01/31 11:39:32;;;;;;;13.48;7.28;;;;;;;;;;6193923;23;20020;-85
2024/01/31 11:42:18;;;;;;;13.05;7.50;;;;;;;;;;6150922;23;20024;-84
2024/01/31 11:45:06;;;;;;;13.25;7.30;;;;;;;;;;6193759;23;20024;-85
2024/01/31 11:47:54;;;;;;;12.13;6.57;;;;;;;;;;6161862;23;20024;-85
2024/01/31 11:50:40;;;;;;;13.30;6.72;;;;;;;;;;6171323;23;20020;-86
2024/01/31 11:53:26;;;;;;;13.45;6.68;;;;;;;;;;6193790;23;20028;-86
2024/01/31 11:56:13;;;;;;;10.70;5.90;;;;;;;;;;6190678;23;20034;-85
2024/01/31 11:59:00;;;;;;;10.20;6.03;;;;;;;;;;6170677;23;20024;-85
2024/01/31 12:01:47;;;;;;;9.80;5.75;;;;;;;;;;6169790;23;20024;-85
2024/01/31 12:04:33;;;;;;;11.65;5.20;;;;;;;;;;6193493;23;20017;-86
2024/01/31 12:07:19;;;;;;;8.27;5.75;;;;;;;;;;6170320;23;20013;-85
2024/01/31 12:10:07;;;;;;;11.93;5.75;;;;;;;;;;6171111;23;20021;-86
2024/01/31 12:12:53;;;;;;;10.68;5.22;;;;;;;;;;6150033;23;20017;-85
2024/01/31 12:15:42;;;;;;;7.65;4.47;;;;;;;;;;6192371;23;20021;-85
2024/01/31 12:18:29;;;;;;;7.63;4.75;;;;;;;;;;6171532;23;20017;-85
2024/01/31 12:21:15;;;;;;;9.40;4.50;;;;;;;;;;6150514;23;20017;-85
2024/01/31 12:24:01;;;;;;;12.40;4.80;;;;;;;;;;6150521;23;20021;-85
2024/01/31 12:26:47;;;;;;;8.18;4.30;;;;;;;;;;6149745;23;20025;-85
2024/01/31 12:29:32;;;;;;;5.20;3.20;;;;;;;;;;6170923;23;20013;-85
2024/01/31 12:32:18;;;;;;;7.00;3.60;;;;;;;;;;6170809;23;20315;-84
2024/01/31 12:35:06;;;;;;;7.30;3.38;;;;;;;;;;6149974;23;20348;-85
2024/01/31 12:37:52;;;;;;;10.18;4.30;;;;;;;;;;6151356;23;20017;-85
2024/01/31 12:40:38;;;;;;;6.43;3.38;;;;;;;;;;6152810;23;20021;-85
2024/01/31 12:43:26;;;;;;;8.73;3.85;;;;;;;;;;6151778;23;20025;-85
2024/01/31 12:46:15;;;;;;;9.68;4.25;;;;;;;;;;6169516;23;20017;-84
2024/01/31 12:49:01;;;;;;;9.50;5.00;;;;;;;;;;6173436;23;20017;-83
2024/01/31 12:51:49;;;;;;;8.45;4.85;;;;;;;;;;6195853;23;20028;-84
2024/01/31 12:54:34;;;;;;;11.23;5.55;;;;;;;;;;6172810;23;20020;-84
2024/01/31 12:57:20;;;;;;;9.43;4.80;;;;;;;;;;6165009;23;20028;-84
2024/01/31 13:00:09;;;;;;;8.32;4.10;;;;;;;;;;6152584;23;20461;-84
2024/01/31 13:02:57;;;;;;;8.13;4.70;;;;;;;;;;6172701;23;20017;-83
2024/01/31 13:05:43;;;;;;;10.90;5.03;;;;;;;;;;6177214;23;20013;-84
2024/01/31 13:08:34;;;;;;;9.10;4.82;;;;;;;;;;6160933;23;20069;-83
2024/01/31 13:11:23;;;;;;;10.05;5.20;;;;;;;;;;6160034;23;20021;-84
2024/01/31 13:14:09;;;;;;;9.45;5.25;;;;;;;;;;6167210;23;20024;-84
2024/01/31 13:16:55;;;;;;;10.70;5.30;;;;;;;;;;6188529;23;20017;-84
2024/01/31 13:19:43;;;;;;;11.68;6.30;;;;;;;;;;6172848;23;20024;-84
2024/01/31 13:22:29;;;;;;;10.70;5.55;;;;;;;;;;6172702;23;20024;-84
2024/01/31 13:25:16;;;;;;;13.02;5.75;;;;;;;;;;6172353;23;20024;-84
2024/01/31 13:28:02;;;;;;;11.90;6.43;;;;;;;;;;6172536;23;20028;-84
2024/01/31 13:30:48;;;;;;;9.13;5.15;;;;;;;;;;6172729;23;20020;-84
2024/01/31 13:33:34;;;;;;;10.60;5.57;;;;;;;;;;6151782;23;20017;-84
2024/01/31 13:36:20;;;;;;;9.18;5.20;;;;;;;;;;6191136;23;20024;-84
2024/01/31 13:39:06;;;;;;;8.50;4.90;;;;;;;;;;6195015;23;20017;-84
2024/01/31 13:41:55;;;;;;;8.63;4.90;;;;;;;;;;6171798;23;20021;-84
2024/01/31 13:44:41;;;;;;;11.20;4.95;;;;;;;;;;6195101;23;20021;-84
2024/01/31 13:47:28;;;;;;;8.68;4.68;;;;;;;;;;6185891;23;20035;-85
2024/01/31 13:50:17;;;;;;;10.73;4.68;;;;;;;;;;6172250;23;20029;-84
2024/01/31 13:53:03;;;;;;;9.45;4.53;;;;;;;;;;6172010;23;20043;-84
2024/01/31 13:55:51;;;;;;;8.15;4.82;;;;;;;;;;6192800;23;20017;-84
2024/01/31 13:58:38;;;;;;;11.80;5.10;;;;;;;;;;6172280;23;20486;-84
2024/01/31 14:01:27;;;;;;;9.80;4.90;;;;;;;;;;6173005;23;20036;-84
2024/01/31 14:04:16;;;;;;;9.00;4.85;;;;;;;;;;6151538;23;20027;-85
2024/01/31 14:07:01;;;;;;;10.80;4.38;;;;;;;;;;6151067;23;20490;-85
2024/01/31 14:09:47;;;;;;;8.20;4.50;;;;;;;;;;6151349;23;20024;-85
2024/01/31 14:12:37;;;;;;;8.85;4.30;;;;;;;;;;6112095;23;20017;-85
2024/01/31 14:15:26;;;;;;;8.52;4.22;;;;;;;;;;6150846;23;20466;-85
2024/01/31 14:18:12;;;;;;;7.07;3.80;;;;;;;;;;6172062;23;20017;-85
2024/01/31 14:20:58;;;;;;;8.25;4.40;;;;;;;;;;6130972;23;20021;-85
2024/01/31 14:23:46;;;;;;;8.38;4.15;;;;;;;;;;6171860;23;20017;-84
2024/01/31 14:26:32;;;;;;;7.35;4.50;;;;;;;;;;6150949;23;20021;-84
2024/01/31 14:29:17;;;;;;;7.85;3.92;;;;;;;;;;6172119;23;20021;-84
2024/01/31 14:32:07;;;;;;;8.52;4.05;;;;;;;;;;6152219;23;20021;-84
2024/01/31 14:34:54;;;;;;;10.50;4.80;;;;;;;;;;6171812;23;20492;-84
2024/01/31 14:37:40;;;;;;;10.90;5.20;;;;;;;;;;6163142;23;20026;-84
2024/01/31 14:40:26;;;;;;;11.38;6.05;;;;;;;;;;6151660;23;20494;-85
2024/01/31 14:43:12;;;;;;;10.85;5.10;;;;;;;;;;6152085;23;20363;-84
2024/01/31 14:45:58;;;;;;;11.13;5.95;;;;;;;;;;6171283;23;20036;-85
2024/01/31 14:48:47;;;;;;;13.73;6.35;;;;;;;;;;6172174;23;20024;-85
2024/01/31 14:51:33;;;;;;;13.98;6.20;;;;;;;;;;6151064;23;20024;-85
2024/01/31 14:54:21;;;;;;;13.65;6.15;;;;;;;;;;6194643;23;20032;-84
2024/01/31 14:57:10;;;;;;;11.70;5.82;;;;;;;;;;6151453;23;20028;-84
2024/01/31 14:59:56;;;;;;;14.02;6.80;;;;;;;;;;6194303;23;20024;-85
2024/01/31 15:02:42;;;;;;;18.33;6.68;;;;;;;;;;6150542;23;20020;-84
2024/01/31 15:05:30;;;;;;;14.63;8.05;;;;;;;;;;6149791;23;20025;-84
2024/01/31 15:08:16;;;;;;;15.95;8.73;;;;;;;;;;6151212;23;20430;-85
2024/01/31 15:11:03;;;;;;;16.00;9.00;;;;;;;;;;6172211;23;20021;-84
2024/01/31 15:13:48;;;;;;;16.08;8.82;;;;;;;;;;6188201;23;20025;-77
2024/01/31 15:16:38;;;;;;;12.65;6.85;;;;;;;;;;6171015;23;20021;-79
2024/01/31 15:19:24;;;;;;;13.90;6.95;;;;;;;;;;6213684;23;20013;-79
2024/01/31 15:22:11;;;;;;;14.23;7.13;;;;;;;;;;6197517;23;20017;-79
2024/01/31 15:24:57;;;;;;;13.43;6.90;;;;;;;;;;6200056;23;20001;-79
2024/01/31 15:27:45;;;;;;;13.80;7.03;;;;;;;;;;6199674;23;20056;-79
2024/01/31 15:30:31;;;;;;;15.20;7.78;;;;;;;;;;6222113;23;20053;-79
2024/01/31 15:33:20;;;;;;;15.43;7.35;;;;;;;;;;6221150;23;20077;-79
2024/01/31 15:36:07;;;;;;;12.77;7.03;;;;;;;;;;6199742;23;20021;-79
2024/01/31 15:38:56;;;;;;;14.10;7.35;;;;;;;;;;6199359;23;20001;-79
2024/01/31 15:41:42;;;;;;;18.30;7.85;;;;;;;;;;6200403;23;20056;-79
2024/01/31 15:44:28;;;;;;;16.83;8.88;;;;;;;;;;6219623;23;20061;-79
2024/01/31 15:58:59;;;;;;;17.33;8.73;;;;;;;;;;6191582;23;20017;-79
2024/01/31 16:01:45;;;;;;;20.08;8.73;;;;;;;;;;6174968;23;20021;-79
2024/01/31 16:04:31;;;;;;;13.95;7.95;;;;;;;;;;6153323;23;20021;-79
2024/01/31 16:07:20;;;;;;;16.73;9.00;;;;;;;;;;6146192;23;20022;-79
2024/01/31 16:10:09;;;;;;;14.25;7.93;;;;;;;;;;6144229;23;20037;-79
2024/01/31 16:12:57;;;;;;;18.77;8.43;;;;;;;;;;6146541;23;20472;-79
2024/01/31 16:15:46;;;;;;;17.98;9.10;;;;;;;;;;6144054;23;20022;-79
2024/01/31 16:18:36;;;;;;;15.35;8.55;;;;;;;;;;6146388;23;20026;-79
2024/01/31 16:21:24;;;;;;;15.35;7.95;;;;;;;;;;6147161;23;20022;-79
2024/01/31 16:38:42;;;;;;;17.48;8.35;;;;;;;;;;6204006;23;20016;-80
2024/01/31 16:41:28;;;;;;;18.05;9.05;;;;;;;;;;6181622;23;20020;-80
2024/01/31 16:44:13;;;;;;;15.35;7.50;;;;;;;;;;6181249;23;20335;-80
2024/01/31 16:47:02;;;;;;;14.38;8.13;;;;;;;;;;6150871;23;20018;-80
2024/01/31 16:49:48;;;;;;;17.92;7.85;;;;;;;;;;6149897;23;20013;-80
2024/01/31 16:52:36;;;;;;;19.35;8.43;;;;;;;;;;6151535;23;20017;-80
2024/01/31 17:13:45;;;;;;;10.68;6.28;;;;;;;;;;6183973;22;1222735;-80
2024/01/31 17:16:30;;;;;;;11.95;6.15;;;;;;;;;;6212993;23;20475;-79
2024/01/31 17:19:19;;;;;;;14.18;7.38;;;;;;;;;;6238137;23;20021;-80
2024/01/31 17:22:05;;;;;;;19.48;9.05;;;;;;;;;;6239387;23;20452;-79
2024/01/31 17:24:53;;;;;;;14.93;8.05;;;;;;;;;;6195450;23;20020;-79
2024/01/31 17:27:41;;;;;;;13.55;7.05;;;;;;;;;;6230234;23;20477;-79
2024/01/31 17:30:29;;;;;;;20.25;9.38;;;;;;;;;;6215565;23;20327;-79